createdAt,value
2022-10-30T00:00:55.842Z,18.17
2022-10-30T00:03:23.085Z,18.16
2022-10-30T00:05:52.141Z,18.10
2022-10-30T00:08:22.802Z,18.14
2022-10-30T00:10:52.719Z,18.11
2022-10-30T00:13:20.877Z,18.11
2022-10-30T00:15:56.688Z,18.09
2022-10-30T00:18:23.880Z,18.10
2022-10-30T00:20:50.995Z,18.10
2022-10-30T00:23:18.971Z,18.12
2022-10-30T00:25:46.290Z,18.09
2022-10-30T00:28:13.340Z,18.09
2022-10-30T00:30:40.611Z,18.08
2022-10-30T00:33:08.889Z,18.07
2022-10-30T00:35:37.295Z,18.08
2022-10-30T00:38:04.459Z,18.05
2022-10-30T00:40:31.628Z,18.04
2022-10-30T00:42:58.768Z,18.04
2022-10-30T00:45:26.058Z,18.02
2022-10-30T00:47:58.372Z,18.00
2022-10-30T00:50:37.318Z,17.94
2022-10-30T00:53:15.589Z,17.87
2022-10-30T00:55:51.790Z,17.78
2022-10-30T00:58:25.276Z,17.73
2022-10-30T01:00:57.356Z,17.70
2022-10-30T01:03:26.339Z,17.67
2022-10-30T01:05:57.354Z,17.63
2022-10-30T01:08:24.706Z,17.61
2022-10-30T01:10:53.229Z,17.58
2022-10-30T01:13:23.861Z,17.61
2022-10-30T01:16:28.587Z,17.61
2022-10-30T01:19:15.769Z,17.59
2022-10-30T01:21:49.026Z,17.59
2022-10-30T01:24:18.831Z,17.62
2022-10-30T01:27:17.104Z,17.59
2022-10-30T01:30:08.134Z,17.54
2022-10-30T01:32:58.533Z,17.52
2022-10-30T01:35:27.448Z,17.48
2022-10-30T01:38:12.643Z,17.47
2022-10-30T01:40:40.106Z,17.49
2022-10-30T01:43:10.193Z,17.52
2022-10-30T01:45:46.458Z,17.51
2022-10-30T01:48:19.519Z,17.52
2022-10-30T01:50:57.225Z,17.52
2022-10-30T01:53:33.018Z,17.48
2022-10-30T01:56:13.881Z,17.43
2022-10-30T01:58:58.005Z,17.39
2022-10-30T02:01:29.151Z,17.34
2022-10-30T02:03:56.516Z,17.33
2022-10-30T02:06:23.825Z,17.28
2022-10-30T02:08:51.247Z,17.28
2022-10-30T02:11:18.732Z,17.27
2022-10-30T02:13:45.885Z,17.25
2022-10-30T02:16:13.846Z,17.21
2022-10-30T02:21:12.408Z,17.15
2022-10-30T02:23:39.776Z,17.11
2022-10-30T02:26:07.088Z,17.08
2022-10-30T02:28:34.143Z,17.08
2022-10-30T02:31:01.413Z,17.09
2022-10-30T02:33:28.568Z,17.09
2022-10-30T02:35:55.633Z,17.13
2022-10-30T02:38:22.771Z,17.13
2022-10-30T02:40:51.180Z,17.10
2022-10-30T02:43:18.287Z,17.08
2022-10-30T02:45:51.129Z,17.04
2022-10-30T02:48:18.320Z,17.05
2022-10-30T02:50:45.416Z,17.01
2022-10-30T02:53:12.612Z,17.00
2022-10-30T02:55:39.833Z,16.98
2022-10-30T02:58:06.868Z,17.00
2022-10-30T03:00:34.249Z,17.01
2022-10-30T03:03:01.353Z,16.99
2022-10-30T03:05:28.695Z,16.98
2022-10-30T03:07:56.247Z,16.99
2022-10-30T03:10:23.831Z,16.97
2022-10-30T03:12:52.595Z,16.95
2022-10-30T03:15:20.106Z,16.92
2022-10-30T03:17:47.212Z,16.92
2022-10-30T03:20:14.375Z,16.90
2022-10-30T03:22:41.446Z,16.87
2022-10-30T03:25:08.903Z,16.85
2022-10-30T03:27:36.103Z,16.82
2022-10-30T03:30:04.216Z,16.81
2022-10-30T03:32:31.362Z,16.79
2022-10-30T03:35:00.371Z,16.77
2022-10-30T03:37:27.598Z,16.74
2022-10-30T03:39:55.289Z,16.74
2022-10-30T03:42:23.014Z,16.76
2022-10-30T03:44:51.812Z,16.75
2022-10-30T03:47:18.875Z,16.74
2022-10-30T03:49:46.513Z,16.72
2022-10-30T03:52:18.276Z,16.72
2022-10-30T03:54:45.344Z,16.68
2022-10-30T03:57:15.656Z,16.67
2022-10-30T03:59:57.610Z,16.67
2022-10-30T04:02:53.801Z,16.71
2022-10-30T04:05:23.203Z,16.71
2022-10-30T04:08:01.028Z,16.69
2022-10-30T04:10:31.272Z,16.72
2022-10-30T04:13:03.782Z,16.72
2022-10-30T04:15:31.714Z,16.72
2022-10-30T04:17:59.231Z,16.75
2022-10-30T04:20:28.153Z,16.73
2022-10-30T04:23:00.760Z,16.72
2022-10-30T04:25:29.591Z,16.71
2022-10-30T04:27:59.413Z,16.67
2022-10-30T04:30:27.781Z,16.63
2022-10-30T04:32:56.796Z,16.62
2022-10-30T04:35:27.152Z,16.60
2022-10-30T04:37:59.276Z,16.56
2022-10-30T04:40:30.740Z,16.52
2022-10-30T04:43:03.389Z,16.53
2022-10-30T04:45:31.137Z,16.51
2022-10-30T04:48:08.763Z,16.51
2022-10-30T04:50:36.251Z,16.50
2022-10-30T04:53:07.751Z,16.50
2022-10-30T04:55:35.715Z,16.50
2022-10-30T04:58:03.451Z,16.50
2022-10-30T05:00:34.325Z,16.50
2022-10-30T05:03:20.348Z,16.52
2022-10-30T05:05:56.032Z,16.52
2022-10-30T05:08:23.245Z,16.50
2022-10-30T05:10:50.328Z,16.47
2022-10-30T05:13:17.644Z,16.47
2022-10-30T05:15:44.956Z,16.48
2022-10-30T05:18:12.059Z,16.48
2022-10-30T05:20:40.983Z,16.48
2022-10-30T05:23:09.857Z,16.48
2022-10-30T05:25:37.054Z,16.47
2022-10-30T05:28:08.961Z,16.49
2022-10-30T05:30:43.113Z,16.53
2022-10-30T05:33:23.438Z,16.69
2022-10-30T05:35:51.085Z,16.93
2022-10-30T05:38:18.188Z,17.21
2022-10-30T05:40:47.247Z,17.59
2022-10-30T05:43:15.329Z,18.02
2022-10-30T05:45:42.645Z,18.47
2022-10-30T05:48:17.211Z,18.91
2022-10-30T05:50:46.660Z,19.40
2022-10-30T05:53:23.339Z,19.92
2022-10-30T05:55:51.358Z,20.38
2022-10-30T05:58:21.485Z,20.87
2022-10-30T06:00:49.358Z,21.42
2022-10-30T06:03:24.910Z,21.95
2022-10-30T06:05:53.163Z,22.42
2022-10-30T06:08:21.234Z,22.86
2022-10-30T06:10:55.762Z,23.17
2022-10-30T06:13:27.397Z,23.48
2022-10-30T06:16:01.303Z,23.86
2022-10-30T06:18:44.914Z,24.24
2022-10-30T06:21:13.784Z,24.48
2022-10-30T06:23:52.689Z,24.38
2022-10-30T06:26:54.391Z,23.54
2022-10-30T06:29:23.809Z,22.90
2022-10-30T06:31:51.229Z,22.40
2022-10-30T06:34:18.435Z,22.06
2022-10-30T06:36:45.677Z,21.69
2022-10-30T06:39:12.914Z,21.40
2022-10-30T06:41:55.480Z,21.24
2022-10-30T06:44:45.895Z,21.24
2022-10-30T06:47:13.112Z,21.17
2022-10-30T06:49:40.646Z,21.05
2022-10-30T06:52:08.409Z,20.91
2022-10-30T06:54:35.581Z,20.67
2022-10-30T06:57:21.315Z,20.47
2022-10-30T07:00:06.825Z,20.24
2022-10-30T07:03:02.513Z,20.09
2022-10-30T07:05:30.623Z,19.80
2022-10-30T07:07:58.539Z,19.76
2022-10-30T07:10:25.733Z,19.67
2022-10-30T07:13:25.278Z,19.71
2022-10-30T07:15:56.454Z,19.67
2022-10-30T07:18:25.273Z,19.64
2022-10-30T07:20:57.302Z,19.65
2022-10-30T07:23:25.221Z,19.61
2022-10-30T07:26:02.516Z,19.71
2022-10-30T07:28:35.899Z,19.80
2022-10-30T07:31:29.034Z,20.10
2022-10-30T07:34:25.366Z,20.45
2022-10-30T07:37:11.078Z,20.67
2022-10-30T07:39:45.797Z,20.87
2022-10-30T07:42:22.922Z,21.00
2022-10-30T07:45:25.330Z,21.17
2022-10-30T07:48:15.595Z,21.23
2022-10-30T07:50:53.596Z,21.23
2022-10-30T07:53:20.849Z,21.30
2022-10-30T07:55:48.868Z,21.40
2022-10-30T07:58:48.395Z,21.37
2022-10-30T08:01:33.993Z,21.25
2022-10-30T08:04:24.447Z,21.20
2022-10-30T08:06:56.455Z,21.22
2022-10-30T08:09:23.758Z,21.21
2022-10-30T08:11:50.809Z,21.14
2022-10-30T08:14:19.532Z,21.14
2022-10-30T08:16:46.620Z,21.18
2022-10-30T08:19:14.072Z,21.25
2022-10-30T08:21:42.397Z,21.39
2022-10-30T08:24:15.564Z,21.50
2022-10-30T08:26:46.268Z,21.64
2022-10-30T08:29:13.455Z,21.71
2022-10-30T08:31:42.811Z,21.71
2022-10-30T08:34:22.535Z,21.63
2022-10-30T08:36:54.598Z,21.58
2022-10-30T08:39:21.880Z,21.71
2022-10-30T08:42:07.478Z,21.68
2022-10-30T08:44:40.576Z,21.65
2022-10-30T08:47:26.268Z,21.74
2022-10-30T08:49:53.491Z,21.87
2022-10-30T08:52:24.161Z,21.84
2022-10-30T08:54:55.667Z,22.05
2022-10-30T08:57:25.159Z,22.11
2022-10-30T08:59:55.498Z,22.02
2022-10-30T09:03:01.547Z,21.94
2022-10-30T09:05:51.936Z,22.08
2022-10-30T09:08:37.692Z,22.24
2022-10-30T09:11:11.643Z,22.32
2022-10-30T09:13:38.929Z,22.35
2022-10-30T09:16:07.117Z,22.28
2022-10-30T09:18:36.640Z,22.37
2022-10-30T09:21:05.134Z,22.39
2022-10-30T09:23:38.687Z,22.53
2022-10-30T09:26:26.019Z,22.57
2022-10-30T09:29:02.284Z,22.76
2022-10-30T09:31:48.012Z,22.57
2022-10-30T09:34:19.805Z,22.64
2022-10-30T09:37:10.158Z,22.81
2022-10-30T09:39:38.701Z,22.98
2022-10-30T09:42:28.576Z,22.94
2022-10-30T09:45:34.229Z,22.80
2022-10-30T09:48:24.987Z,23.02
2022-10-30T09:51:21.908Z,23.04
2022-10-30T09:54:28.458Z,23.08
2022-10-30T09:57:16.317Z,23.17
2022-10-30T10:00:03.236Z,23.28
2022-10-30T10:02:34.734Z,23.30
2022-10-30T10:05:24.511Z,23.23
2022-10-30T10:08:36.295Z,23.27
2022-10-30T10:11:47.631Z,23.31
2022-10-30T10:14:21.999Z,23.52
2022-10-30T10:16:55.337Z,23.55
2022-10-30T10:20:01.716Z,23.73
2022-10-30T10:23:05.144Z,23.70
2022-10-30T10:25:32.625Z,23.76
2022-10-30T10:28:08.627Z,23.57
2022-10-30T10:31:00.243Z,23.59
2022-10-30T10:33:30.485Z,23.70
2022-10-30T10:36:26.834Z,23.78
2022-10-30T10:38:53.824Z,24.06
2022-10-30T10:41:43.864Z,24.19
2022-10-30T10:44:35.252Z,24.27
2022-10-30T10:47:10.339Z,24.15
2022-10-30T10:49:48.744Z,24.03
2022-10-30T10:52:21.987Z,24.26
2022-10-30T10:54:57.818Z,24.23
2022-10-30T10:57:24.805Z,24.20
2022-10-30T11:00:01.937Z,24.09
2022-10-30T11:02:32.381Z,23.96
2022-10-30T11:05:08.719Z,24.03
2022-10-30T11:07:50.498Z,23.97
2022-10-30T11:10:20.036Z,23.85
2022-10-30T11:12:47.426Z,23.92
2022-10-30T11:15:23.807Z,24.01
2022-10-30T11:18:01.805Z,24.00
2022-10-30T11:20:31.580Z,24.02
2022-10-30T11:22:58.876Z,23.99
2022-10-30T11:25:33.446Z,24.15
2022-10-30T11:28:03.872Z,24.15
2022-10-30T11:30:31.543Z,24.06
2022-10-30T11:33:00.262Z,24.03
2022-10-30T11:35:27.440Z,23.86
2022-10-30T11:38:22.796Z,23.81
2022-10-30T11:40:52.986Z,23.67
2022-10-30T11:43:23.888Z,23.70
2022-10-30T11:45:51.931Z,23.76
2022-10-30T11:48:34.216Z,23.86
2022-10-30T11:51:03.109Z,23.91
2022-10-30T11:53:38.859Z,23.96
2022-10-30T11:56:16.857Z,23.82
2022-10-30T11:58:53.711Z,23.77
2022-10-30T12:01:23.674Z,23.64
2022-10-30T12:03:51.539Z,23.65
2022-10-30T12:06:27.403Z,23.38
2022-10-30T12:09:11.482Z,23.24
2022-10-30T12:11:40.281Z,23.11
2022-10-30T12:14:14.124Z,23.06
2022-10-30T12:16:46.930Z,23.23
2022-10-30T12:19:16.607Z,23.34
2022-10-30T12:21:57.328Z,23.31
2022-10-30T12:24:27.466Z,23.29
2022-10-30T12:26:56.249Z,23.27
2022-10-30T12:30:02.576Z,23.21
2022-10-30T12:32:27.616Z,23.04
2022-10-30T12:35:06.347Z,23.15
2022-10-30T12:37:41.908Z,23.35
2022-10-30T12:40:18.122Z,23.22
2022-10-30T12:43:10.598Z,23.00
2022-10-30T12:45:54.903Z,22.82
2022-10-30T12:48:33.638Z,22.85
2022-10-30T12:51:30.330Z,22.96
2022-10-30T12:54:03.275Z,22.77
2022-10-30T12:56:38.778Z,22.71
2022-10-30T12:59:40.958Z,22.77
2022-10-30T13:02:30.471Z,22.77
2022-10-30T13:05:03.214Z,22.76
2022-10-30T13:07:38.971Z,22.63
2022-10-30T13:10:31.201Z,22.61
2022-10-30T13:13:10.578Z,22.79
2022-10-30T13:15:44.991Z,22.97
2022-10-30T13:18:21.549Z,23.06
2022-10-30T13:21:21.084Z,22.98
2022-10-30T13:23:55.737Z,22.99
2022-10-30T13:26:36.435Z,22.81
2022-10-30T13:29:24.954Z,22.69
2022-10-30T13:32:14.454Z,22.73
2022-10-30T13:35:18.776Z,22.72
2022-10-30T13:38:34.297Z,22.56
2022-10-30T13:41:33.356Z,22.55
2022-10-30T13:44:03.445Z,22.53
2022-10-30T13:47:08.081Z,22.60
2022-10-30T13:49:51.463Z,22.64
2022-10-30T13:52:21.337Z,22.66
2022-10-30T13:54:48.644Z,22.67
2022-10-30T13:57:40.689Z,22.60
2022-10-30T14:00:22.411Z,22.57
2022-10-30T14:03:11.558Z,22.53
2022-10-30T14:06:10.749Z,22.44
2022-10-30T14:09:02.413Z,22.51
2022-10-30T14:11:29.621Z,22.47
2022-10-30T14:14:28.440Z,22.37
2022-10-30T14:17:09.827Z,22.23
2022-10-30T14:20:13.765Z,22.24
2022-10-30T14:22:41.895Z,22.18
2022-10-30T14:25:16.346Z,22.23
2022-10-30T14:27:43.680Z,22.26
2022-10-30T14:30:20.612Z,22.25
2022-10-30T14:32:52.437Z,22.20
2022-10-30T14:35:34.852Z,22.15
2022-10-30T14:38:10.860Z,22.06
2022-10-30T14:40:56.466Z,22.03
2022-10-30T14:43:35.032Z,21.98
2022-10-30T14:46:11.387Z,21.98
2022-10-30T14:48:41.397Z,21.87
2022-10-30T14:51:33.799Z,21.84
2022-10-30T14:54:24.717Z,21.78
2022-10-30T14:56:54.279Z,21.78
2022-10-30T14:59:31.396Z,21.78
2022-10-30T15:02:35.992Z,21.77
2022-10-30T15:05:19.168Z,21.71
2022-10-30T15:07:53.678Z,21.77
2022-10-30T15:10:31.575Z,21.76
2022-10-30T15:13:23.529Z,21.77
2022-10-30T15:16:07.098Z,21.77
2022-10-30T15:18:34.709Z,21.73
2022-10-30T15:21:07.205Z,21.70
2022-10-30T15:23:37.469Z,21.65
2022-10-30T15:26:19.163Z,21.62
2022-10-30T15:28:50.722Z,21.58
2022-10-30T15:31:17.723Z,21.54
2022-10-30T15:33:45.443Z,21.47
2022-10-30T15:36:21.288Z,21.47
2022-10-30T15:39:14.730Z,21.42
2022-10-30T15:41:44.476Z,21.37
2022-10-30T15:44:14.976Z,21.29
2022-10-30T15:46:46.770Z,21.22
2022-10-30T15:49:21.085Z,21.21
2022-10-30T15:51:48.514Z,21.18
2022-10-30T15:54:21.490Z,21.15
2022-10-30T15:57:27.150Z,21.13
2022-10-30T15:59:37.969Z,21.12
2022-10-30T16:02:21.998Z,21.07
2022-10-30T16:04:50.047Z,21.04
2022-10-30T16:07:22.238Z,21.00
2022-10-30T16:09:57.624Z,20.98
2022-10-30T16:12:33.766Z,20.91
2022-10-30T16:15:07.319Z,20.84
2022-10-30T16:17:35.298Z,20.83
2022-10-30T16:20:04.165Z,20.78
2022-10-30T16:22:41.999Z,20.70
2022-10-30T16:25:13.100Z,20.65
2022-10-30T16:31:20.571Z,20.49
2022-10-30T16:33:49.101Z,20.43
2022-10-30T16:36:18.339Z,20.38
2022-10-30T16:38:49.062Z,20.36
2022-10-30T16:41:17.999Z,20.37
2022-10-30T16:44:13.016Z,20.35
2022-10-30T16:46:51.123Z,20.29
2022-10-30T16:49:26.334Z,20.27
2022-10-30T16:52:01.046Z,20.24
2022-10-30T16:54:39.887Z,20.20
2022-10-30T16:57:21.142Z,20.17
2022-10-30T16:59:52.117Z,20.13
2022-10-30T17:02:22.464Z,20.11
2022-10-30T17:05:08.781Z,20.10
2022-10-30T17:07:38.018Z,20.05
2022-10-30T17:10:32.864Z,20.02
2022-10-30T17:13:34.863Z,19.99
2022-10-30T17:16:26.945Z,19.96
2022-10-30T17:18:56.022Z,19.92
2022-10-30T17:21:36.838Z,19.95
2022-10-30T17:24:04.336Z,19.94
2022-10-30T17:26:37.082Z,19.94
2022-10-30T17:29:04.342Z,19.97
2022-10-30T17:31:37.105Z,19.99
2022-10-30T17:34:20.743Z,19.99
2022-10-30T17:36:48.923Z,19.99
2022-10-30T17:39:16.182Z,20.02
2022-10-30T17:41:43.856Z,20.04
2022-10-30T17:44:23.116Z,20.03
2022-10-30T17:46:52.274Z,20.03
2022-10-30T17:49:28.697Z,20.02
2022-10-30T17:51:56.611Z,20.06
2022-10-30T17:54:24.084Z,20.07
2022-10-30T17:56:51.613Z,20.08
2022-10-30T17:59:18.825Z,20.07
2022-10-30T18:01:46.088Z,20.07
2022-10-30T18:04:20.788Z,20.04
2022-10-30T18:06:49.092Z,20.02
2022-10-30T18:09:17.890Z,19.96
2022-10-30T18:11:45.857Z,19.92
2022-10-30T18:14:13.099Z,19.90
2022-10-30T18:16:40.169Z,19.94
2022-10-30T18:19:11.199Z,19.95
2022-10-30T18:21:38.908Z,19.96
2022-10-30T18:24:13.120Z,19.97
2022-10-30T18:26:42.102Z,19.95
2022-10-30T18:29:09.987Z,19.92
2022-10-30T18:31:38.409Z,19.92
2022-10-30T18:34:11.962Z,19.89
2022-10-30T18:36:39.852Z,19.90
2022-10-30T18:39:07.086Z,19.88
2022-10-30T18:41:37.196Z,19.85
2022-10-30T18:44:04.867Z,19.83
2022-10-30T18:46:33.688Z,19.81
2022-10-30T18:49:02.305Z,19.79
2022-10-30T18:51:30.100Z,19.79
2022-10-30T18:53:57.424Z,19.81
2022-10-30T18:56:27.066Z,19.81
2022-10-30T18:58:58.749Z,19.80
2022-10-30T19:01:30.034Z,19.78
2022-10-30T19:04:01.087Z,19.74
2022-10-30T19:06:28.585Z,19.74
2022-10-30T19:08:55.965Z,19.73
2022-10-30T19:11:25.420Z,19.75
2022-10-30T19:13:54.906Z,19.75
2022-10-30T19:16:24.908Z,19.73
2022-10-30T19:18:52.118Z,19.71
2022-10-30T19:21:22.234Z,19.71
2022-10-30T19:23:49.620Z,19.70
2022-10-30T19:26:17.694Z,19.67
2022-10-30T19:28:45.957Z,19.63
2022-10-30T19:31:20.755Z,19.62
2022-10-30T19:33:51.470Z,19.60
2022-10-30T19:36:36.846Z,19.55
2022-10-30T19:39:17.055Z,19.51
2022-10-30T19:41:44.514Z,19.49
2022-10-30T19:44:11.624Z,19.47
2022-10-30T19:46:38.841Z,19.40
2022-10-30T19:49:20.028Z,19.37
2022-10-30T19:51:47.849Z,19.34
2022-10-30T19:54:15.277Z,19.33
2022-10-30T19:56:44.363Z,19.30
2022-10-30T19:59:15.915Z,19.29
2022-10-30T20:01:45.155Z,19.28
2022-10-30T20:04:12.987Z,19.26
2022-10-30T20:06:40.757Z,19.23
2022-10-30T20:09:13.057Z,19.23
2022-10-30T20:11:40.832Z,19.22
2022-10-30T20:14:08.503Z,19.19
2022-10-30T20:16:36.723Z,19.16
2022-10-30T20:19:26.324Z,19.14
2022-10-30T20:21:53.656Z,19.11
2022-10-30T20:24:20.849Z,19.12
2022-10-30T20:26:49.123Z,19.13
2022-10-30T20:29:16.976Z,19.13
2022-10-30T20:31:44.351Z,19.09
2022-10-30T20:34:11.863Z,19.08
2022-10-30T20:36:38.962Z,19.05
2022-10-30T20:39:06.202Z,19.02
2022-10-30T20:41:33.749Z,18.97
2022-10-30T20:44:01.100Z,18.92
2022-10-30T20:46:28.852Z,18.87
2022-10-30T20:48:56.669Z,18.86
2022-10-30T20:51:24.053Z,18.85
2022-10-30T20:53:51.377Z,18.83
2022-10-30T20:56:18.621Z,18.87
2022-10-30T20:58:54.614Z,18.82
2022-10-30T21:01:24.369Z,18.86
2022-10-30T21:04:00.545Z,18.84
2022-10-30T21:06:29.069Z,18.84
2022-10-30T21:08:56.422Z,18.83
2022-10-30T21:11:23.605Z,18.79
2022-10-30T21:13:52.321Z,18.77
2022-10-30T21:16:19.643Z,18.76
2022-10-30T21:18:52.051Z,18.76
2022-10-30T21:21:25.177Z,18.73
2022-10-30T21:23:56.231Z,18.72
2022-10-30T21:26:25.125Z,18.67
2022-10-30T21:28:52.897Z,18.67
2022-10-30T21:31:21.021Z,18.64
2022-10-30T21:33:48.466Z,18.62
2022-10-30T21:36:17.428Z,18.60
2022-10-30T21:38:44.972Z,18.58
2022-10-30T21:41:14.496Z,18.54
2022-10-30T21:43:41.792Z,18.50
2022-10-30T21:46:10.675Z,18.48
2022-10-30T21:48:38.314Z,18.45
2022-10-30T21:51:11.893Z,18.43
2022-10-30T21:53:39.686Z,18.41
2022-10-30T21:56:12.245Z,18.41
2022-10-30T21:58:40.232Z,18.38
2022-10-30T22:01:12.646Z,18.35
2022-10-30T22:03:39.734Z,18.31
2022-10-30T22:06:08.697Z,18.28
2022-10-30T22:08:36.049Z,18.25
2022-10-30T22:11:05.409Z,18.25
2022-10-30T22:13:32.560Z,18.23
2022-10-30T22:15:59.755Z,18.22
2022-10-30T22:18:26.884Z,18.21
2022-10-30T22:21:17.768Z,18.21
2022-10-30T22:23:44.824Z,18.19
2022-10-30T22:26:15.789Z,18.16
2022-10-30T22:28:56.693Z,18.16
2022-10-30T22:31:25.209Z,18.16
2022-10-30T22:33:52.691Z,18.17
2022-10-30T22:36:25.295Z,18.19
2022-10-30T22:39:01.139Z,18.18
2022-10-30T22:41:32.864Z,18.16
2022-10-30T22:44:08.063Z,18.15
2022-10-30T22:46:36.379Z,18.16
2022-10-30T22:49:03.737Z,18.16
2022-10-30T22:51:32.752Z,18.17
2022-10-30T22:54:02.838Z,18.19
2022-10-30T22:56:33.275Z,18.19
2022-10-30T22:59:02.468Z,18.21
2022-10-30T23:01:32.094Z,18.22
2022-10-30T23:04:01.596Z,18.20
2022-10-30T23:06:30.097Z,18.18
2022-10-30T23:08:59.517Z,18.15
2022-10-30T23:11:27.386Z,18.11
2022-10-30T23:13:54.790Z,18.03
2022-10-30T23:16:24.219Z,18.05
2022-10-30T23:18:51.820Z,18.06
2022-10-30T23:21:21.496Z,18.03
2022-10-30T23:23:49.563Z,17.98
2022-10-30T23:26:19.524Z,17.97
2022-10-30T23:28:47.438Z,17.92
2022-10-30T23:31:22.463Z,17.89
2022-10-30T23:33:51.273Z,17.90
2022-10-30T23:36:18.782Z,17.89
2022-10-30T23:39:10.632Z,17.89
2022-10-30T23:41:37.771Z,17.86
2022-10-30T23:44:07.143Z,17.83
2022-10-30T23:46:35.990Z,17.81
2022-10-30T23:49:04.361Z,17.81
2022-10-30T23:51:31.817Z,17.76
2022-10-30T23:53:59.051Z,17.79
2022-10-30T23:56:26.297Z,17.78
2022-10-30T23:58:53.726Z,17.78
